Time;durP1;ratioP1;P1;durP2;ratioP2;P2;SDS_P1;SDS_P2;PMS_P1;PMS_P2;Temp;Humidity;BMP_temperature;BMP_pressure;BME280_temperature;BME280_humidity;BME280_pressure;Samples;Min_cycle;Max_cycle;Signal;HPM_P1;HPM_P2
2022/01/26 00:06:51;;;;;;;54.20;29.00;;;4.10;99.90;;;;;;5053587;28;20308;-62
2022/01/26 00:09:20;;;;;;;54.67;28.83;;;4.00;99.90;;;;;;5053599;28;20241;-62
2022/01/26 00:11:47;;;;;;;54.00;26.37;;;4.00;99.90;;;;;;5053491;28;20201;-62
2022/01/26 00:14:13;;;;;;;56.90;27.33;;;3.70;99.90;;;;;;5053070;28;20594;-62
2022/01/26 00:16:42;;;;;;;50.60;26.73;;;3.60;99.90;;;;;;5053382;28;20225;-62
2022/01/26 00:19:14;;;;;;;63.70;27.67;;;3.40;99.90;;;;;;5053399;28;20261;-62
2022/01/26 00:21:47;;;;;;;52.33;26.17;;;3.40;99.90;;;;;;5053563;28;20210;-62
2022/01/26 00:27:19;;;;;;;49.40;24.23;;;3.40;99.90;;;;;;5053504;28;20281;-62
2022/01/26 00:29:58;;;;;;;50.20;24.20;;;3.20;99.90;;;;;;5053162;28;20229;-62
2022/01/26 00:40:42;;;;;;;50.27;28.00;;;3.40;99.90;;;;;;5053044;28;20342;-62
2022/01/26 00:43:15;;;;;;;56.50;27.20;;;3.60;99.90;;;;;;5053170;28;20221;-62
2022/01/26 00:45:43;;;;;;;50.83;25.30;;;3.60;99.90;;;;;;5052985;28;20251;-62
2022/01/26 00:48:11;;;;;;;46.33;24.97;;;3.60;99.90;;;;;;5052901;28;20228;-62
2022/01/26 00:50:39;;;;;;;54.90;27.27;;;3.70;99.90;;;;;;5052828;28;20205;-62
2022/01/26 00:53:08;;;;;;;57.53;27.67;;;3.80;99.90;;;;;;5052952;28;20201;-62
2022/01/26 00:55:35;;;;;;;58.00;28.07;;;3.90;99.90;;;;;;5052535;28;20662;-62
2022/01/26 00:58:02;;;;;;;60.77;28.83;;;4.00;99.90;;;;;;5052482;28;20733;-62
2022/01/26 01:00:30;;;;;;;69.30;28.93;;;4.20;99.90;;;;;;5052791;28;20205;-62
2022/01/26 01:02:58;;;;;;;70.60;28.33;;;4.30;99.90;;;;;;5052453;28;20712;-62
2022/01/26 01:05:30;;;;;;;74.27;29.70;;;4.30;99.90;;;;;;5052390;28;20217;-62
2022/01/26 01:08:02;;;;;;;58.53;30.93;;;3.90;99.90;;;;;;5052240;28;20330;-62
2022/01/26 01:10:29;;;;;;;68.27;29.93;;;3.80;99.90;;;;;;5052628;28;20206;-62
2022/01/26 01:12:58;;;;;;;63.63;30.00;;;3.80;99.90;;;;;;5052600;28;20627;-62
2022/01/26 01:15:26;;;;;;;61.77;28.27;;;3.80;99.90;;;;;;5052288;28;20211;-62
2022/01/26 01:18:04;;;;;;;58.77;30.40;;;3.90;99.90;;;;;;5052464;28;20724;-62
2022/01/26 01:20:48;;;;;;;67.20;29.93;;;4.00;99.90;;;;;;5052488;28;20206;-62
2022/01/26 01:23:39;;;;;;;76.87;29.17;;;4.10;99.90;;;;;;5052353;28;20205;-62
2022/01/26 01:26:25;;;;;;;61.40;29.37;;;4.10;99.90;;;;;;5051798;28;20217;-62
2022/01/26 01:29:10;;;;;;;60.87;30.60;;;4.10;99.90;;;;;;5052324;28;20662;-62
2022/01/26 01:31:44;;;;;;;64.50;30.27;;;4.00;99.90;;;;;;5052231;28;20611;-62
2022/01/26 01:34:14;;;;;;;64.00;30.97;;;4.00;99.90;;;;;;5052131;28;20274;-61
2022/01/26 01:36:43;;;;;;;63.47;29.57;;;4.00;99.90;;;;;;5051973;28;20205;-62
2022/01/26 01:39:10;;;;;;;66.90;32.10;;;3.90;99.90;;;;;;5051893;28;20231;-68
2022/01/26 01:41:38;;;;;;;72.53;39.77;;;4.10;99.90;;;;;;5050987;28;20432;-62
2022/01/26 01:44:06;;;;;;;65.83;34.33;;;4.20;99.90;;;;;;5051905;28;20206;-62
2022/01/26 01:46:33;;;;;;;63.43;32.23;;;4.20;99.90;;;;;;5051924;28;20213;-63
2022/01/26 01:49:00;;;;;;;62.73;31.93;;;4.30;99.90;;;;;;5051823;28;20232;-62
2022/01/26 01:51:32;;;;;;;63.03;32.20;;;4.20;99.90;;;;;;5051725;28;20688;-62
2022/01/26 01:53:59;;;;;;;57.23;28.60;;;4.20;99.90;;;;;;5052083;28;20217;-62
2022/01/26 01:56:27;;;;;;;69.60;30.77;;;4.20;99.90;;;;;;5051720;28;20208;-62
2022/01/26 01:58:54;;;;;;;77.40;30.07;;;4.10;99.90;;;;;;5051693;28;20230;-62
2022/01/26 02:01:21;;;;;;;71.53;30.37;;;3.90;99.90;;;;;;5051877;28;20206;-62
2022/01/26 02:03:48;;;;;;;79.33;30.63;;;3.40;99.90;;;;;;5051593;28;20258;-62
2022/01/26 02:06:15;;;;;;;63.63;30.03;;;3.10;99.90;;;;;;5051467;28;20602;-62
2022/01/26 02:08:43;;;;;;;69.13;31.43;;;3.20;99.90;;;;;;5051695;28;20294;-62
2022/01/26 02:11:12;;;;;;;56.63;28.87;;;3.40;99.90;;;;;;5051783;28;20267;-62
2022/01/26 02:13:47;;;;;;;54.87;28.10;;;3.60;99.90;;;;;;5051933;28;20233;-67
2022/01/26 02:16:21;;;;;;;49.53;27.37;;;3.90;99.90;;;;;;5051526;28;20292;-62
2022/01/26 02:19:07;;;;;;;48.23;25.90;;;4.10;99.90;;;;;;5051905;28;20240;-62
2022/01/26 02:49:38;;;;;;;58.40;30.00;;;4.70;99.90;;;;;;5055297;28;20300;-62
2022/01/26 02:52:19;;;;;;;62.73;30.63;;;4.80;99.90;;;;;;5055079;28;20194;-62
2022/01/26 02:54:57;;;;;;;56.20;28.73;;;4.80;99.90;;;;;;5055139;28;20209;-62
2022/01/26 02:57:48;;;;;;;55.87;30.80;;;4.80;99.90;;;;;;5055218;28;20563;-62
2022/01/26 03:00:23;;;;;;;61.30;31.30;;;4.80;99.90;;;;;;5054938;28;20214;-62
2022/01/26 03:02:54;;;;;;;66.50;32.83;;;4.70;99.90;;;;;;5055004;28;20205;-62
2022/01/26 03:05:27;;;;;;;61.33;31.43;;;4.60;99.90;;;;;;5054781;28;20215;-62
2022/01/26 03:07:57;;;;;;;67.50;32.80;;;4.60;99.90;;;;;;5054817;28;20776;-62
2022/01/26 03:10:33;;;;;;;65.03;32.20;;;4.60;99.90;;;;;;5054952;28;20209;-62
2022/01/26 03:13:05;;;;;;;63.20;32.73;;;4.60;99.90;;;;;;5054904;28;21259;-62
2022/01/26 03:15:36;;;;;;;66.07;33.77;;;4.70;99.90;;;;;;5054796;28;20213;-62
2022/01/26 03:20:46;;;;;;;67.77;32.80;;;4.60;99.90;;;;;;5031960;28;20650;-62
2022/01/26 03:28:46;;;;;;;63.27;31.17;;;4.60;99.90;;;;;;5054473;28;20217;-62
2022/01/26 03:31:49;;;;;;;63.53;31.13;;;4.30;99.90;;;;;;5054355;28;20216;-62
2022/01/26 03:34:16;;;;;;;56.13;28.87;;;4.00;99.90;;;;;;5054283;28;20247;-62
2022/01/26 03:36:49;;;;;;;55.60;29.27;;;4.00;99.90;;;;;;5053946;28;20201;-62
2022/01/26 03:39:18;;;;;;;53.93;29.40;;;4.10;99.90;;;;;;5054340;28;20234;-62
2022/01/26 03:41:49;;;;;;;67.77;28.60;;;4.10;99.90;;;;;;5054174;28;20700;-62
2022/01/26 03:44:16;;;;;;;54.53;27.07;;;4.20;99.90;;;;;;5054106;28;20632;-62
2022/01/26 03:46:47;;;;;;;52.23;28.20;;;4.30;99.90;;;;;;5053782;28;20210;-62
2022/01/26 03:49:14;;;;;;;47.27;25.70;;;4.40;99.90;;;;;;5053501;28;20288;-62
2022/01/26 03:51:41;;;;;;;46.73;24.13;;;4.50;99.90;;;;;;5054032;28;20305;-62
2022/01/26 03:54:08;;;;;;;53.10;23.17;;;4.50;99.90;;;;;;5053992;28;20201;-62
2022/01/26 03:56:35;;;;;;;58.20;25.17;;;4.50;99.90;;;;;;5053581;28;20210;-62
2022/01/26 03:59:05;;;;;;;49.90;23.23;;;4.40;99.90;;;;;;5053873;28;20233;-62
2022/01/26 04:01:32;;;;;;;45.73;23.23;;;4.20;99.90;;;;;;5054063;28;20209;-62
2022/01/26 04:03:59;;;;;;;44.57;22.03;;;3.90;99.90;;;;;;5053822;28;20209;-62
2022/01/26 04:06:26;;;;;;;43.17;23.37;;;3.80;99.90;;;;;;5053529;28;20232;-62
2022/01/26 04:08:53;;;;;;;49.67;23.13;;;3.90;99.90;;;;;;5053383;28;20229;-62
2022/01/26 04:11:34;;;;;;;52.20;22.87;;;4.00;99.90;;;;;;5053993;28;20221;-62
2022/01/26 04:14:05;;;;;;;50.93;23.67;;;4.00;99.90;;;;;;5053648;28;20245;-62
2022/01/26 04:16:31;;;;;;;45.70;22.03;;;4.10;99.90;;;;;;5053399;28;20202;-62
2022/01/26 04:18:58;;;;;;;53.77;23.30;;;4.10;99.90;;;;;;5053299;28;20233;-62
2022/01/26 04:21:34;;;;;;;97.53;66.30;;;4.20;99.90;;;;;;5053816;28;20209;-62
2022/01/26 04:24:04;;;;;;;47.07;24.67;;;4.10;99.90;;;;;;5053323;28;20660;-62
2022/01/26 04:26:36;;;;;;;41.60;23.00;;;4.20;99.90;;;;;;5053315;28;20213;-62
2022/01/26 04:29:09;;;;;;;47.00;22.97;;;4.10;99.90;;;;;;5053188;28;20312;-62
2022/01/26 04:31:36;;;;;;;50.50;23.33;;;4.20;99.90;;;;;;5053200;28;20206;-62
2022/01/26 04:34:02;;;;;;;50.90;23.03;;;4.20;99.90;;;;;;5052795;28;20232;-61
2022/01/26 04:36:34;;;;;;;46.80;23.00;;;4.20;99.90;;;;;;5052827;28;20213;-62
2022/01/26 04:39:06;;;;;;;43.23;23.60;;;4.20;99.90;;;;;;5052889;28;20229;-61
2022/01/26 04:41:37;;;;;;;46.03;23.30;;;4.30;99.90;;;;;;5053316;28;20650;-61
2022/01/26 04:44:11;;;;;;;46.33;23.60;;;4.30;99.90;;;;;;5052892;28;20210;-62
2022/01/26 04:46:37;;;;;;;43.93;22.50;;;4.30;99.90;;;;;;5052730;28;20678;-60
2022/01/26 04:49:04;;;;;;;44.70;23.40;;;4.40;99.90;;;;;;5052919;28;20226;-62
2022/01/26 04:51:31;;;;;;;44.20;23.87;;;4.30;99.90;;;;;;5053044;28;20236;-59
2022/01/26 04:53:58;;;;;;;48.27;23.70;;;4.30;99.90;;;;;;5052964;28;20225;-62
2022/01/26 04:56:25;;;;;;;49.13;22.83;;;4.30;99.90;;;;;;5052587;28;20210;-62
2022/01/26 04:58:53;;;;;;;44.37;23.93;;;4.20;99.90;;;;;;5052729;28;20230;-60
2022/01/26 05:01:21;;;;;;;49.70;23.37;;;4.20;99.90;;;;;;5052011;28;20263;-60
2022/01/26 05:03:47;;;;;;;47.90;22.37;;;4.20;99.90;;;;;;5052799;28;20205;-60
2022/01/26 05:06:14;;;;;;;49.47;23.77;;;4.20;99.90;;;;;;5052199;28;20627;-60
2022/01/26 05:08:41;;;;;;;50.83;24.63;;;4.20;99.90;;;;;;5053060;28;20233;-60
2022/01/26 05:11:10;;;;;;;46.80;24.07;;;4.20;99.90;;;;;;5052568;28;20205;-61
2022/01/26 05:13:37;;;;;;;42.97;23.33;;;4.20;99.90;;;;;;5052305;28;20206;-61
2022/01/26 05:16:06;;;;;;;41.80;20.63;;;4.20;99.90;;;;;;5052123;28;20205;-60
2022/01/26 05:18:34;;;;;;;40.67;21.57;;;4.30;99.90;;;;;;5052388;28;20230;-61
2022/01/26 05:21:01;;;;;;;39.27;21.93;;;4.20;99.90;;;;;;5052335;28;20206;-61
2022/01/26 05:23:27;;;;;;;41.43;21.60;;;4.30;99.90;;;;;;5052207;28;20212;-61
2022/01/26 05:25:54;;;;;;;37.97;20.67;;;4.30;99.90;;;;;;5051884;28;20264;-61
2022/01/26 05:28:21;;;;;;;37.13;20.97;;;4.30;99.90;;;;;;5051988;28;20249;-61
2022/01/26 05:30:47;;;;;;;39.50;21.27;;;4.40;99.90;;;;;;5052210;28;20559;-61
2022/01/26 05:33:14;;;;;;;44.43;23.27;;;4.50;99.90;;;;;;5052042;28;20645;-60
2022/01/26 05:35:42;;;;;;;39.20;22.43;;;4.40;99.90;;;;;;5051701;28;20700;-61
2022/01/26 05:38:09;;;;;;;39.60;22.10;;;4.50;99.90;;;;;;5052059;28;20230;-61
2022/01/26 05:40:36;;;;;;;43.07;21.73;;;4.50;99.90;;;;;;5052163;28;20206;-61
2022/01/26 05:43:02;;;;;;;36.87;22.00;;;4.50;99.90;;;;;;5052711;28;20205;-61
2022/01/26 05:45:33;;;;;;;36.63;21.30;;;4.50;99.90;;;;;;5051543;28;20213;-61
2022/01/26 05:48:02;;;;;;;36.30;21.17;;;4.50;99.90;;;;;;5051850;28;20275;-61
2022/01/26 05:50:29;;;;;;;37.70;21.10;;;4.50;99.90;;;;;;5051798;28;20214;-61
2022/01/26 05:52:57;;;;;;;38.07;21.10;;;4.50;99.90;;;;;;5051807;28;20217;-61
2022/01/26 05:55:24;;;;;;;34.20;19.87;;;4.50;99.90;;;;;;5051459;28;20201;-61
2022/01/26 05:57:50;;;;;;;41.57;21.97;;;4.20;99.90;;;;;;5051506;28;20209;-61
2022/01/26 06:00:17;;;;;;;41.97;20.93;;;4.10;99.90;;;;;;5051566;28;20267;-61
2022/01/26 06:02:45;;;;;;;39.23;20.37;;;4.00;99.90;;;;;;5051903;28;20677;-61
2022/01/26 06:05:12;;;;;;;39.47;21.13;;;4.00;99.90;;;;;;5051478;28;20208;-61
2022/01/26 06:07:38;;;;;;;38.00;20.43;;;4.10;99.90;;;;;;5051310;28;20205;-61
2022/01/26 06:10:07;;;;;;;39.80;21.93;;;4.10;99.90;;;;;;5051588;28;20205;-61
2022/01/26 06:12:34;;;;;;;46.33;23.87;;;4.20;99.90;;;;;;5053084;28;20202;-61
2022/01/26 06:15:01;;;;;;;35.70;20.67;;;4.20;99.90;;;;;;5055693;28;20233;-61
2022/01/26 06:17:28;;;;;;;36.27;19.63;;;4.20;99.90;;;;;;5055768;28;20214;-61
2022/01/26 06:19:55;;;;;;;35.83;20.13;;;4.00;99.90;;;;;;5055713;28;20233;-61
2022/01/26 06:22:22;;;;;;;34.53;20.13;;;3.90;99.90;;;;;;5055618;28;20205;-61
2022/01/26 06:24:48;;;;;;;37.50;20.13;;;3.90;99.90;;;;;;5055574;28;20205;-61
2022/01/26 06:27:16;;;;;;;41.13;21.10;;;4.00;99.90;;;;;;5055527;28;20216;-61
2022/01/26 06:29:43;;;;;;;39.37;21.27;;;4.00;99.90;;;;;;5055152;28;20229;-61
2022/01/26 06:32:11;;;;;;;48.70;25.17;;;4.10;99.90;;;;;;5055410;28;20209;-61
2022/01/26 06:34:39;;;;;;;41.00;21.93;;;4.20;99.90;;;;;;5055278;28;20209;-61
2022/01/26 06:37:06;;;;;;;48.47;23.93;;;4.20;99.90;;;;;;5055142;28;20625;-62
2022/01/26 06:39:33;;;;;;;47.10;23.70;;;4.30;99.90;;;;;;5055451;28;20316;-62
2022/01/26 06:42:00;;;;;;;42.30;22.80;;;4.30;99.90;;;;;;5055359;28;20594;-61
2022/01/26 06:44:32;;;;;;;44.43;23.03;;;4.30;99.90;;;;;;5055194;28;20213;-62
2022/01/26 06:47:17;;;;;;;42.17;22.07;;;4.30;99.90;;;;;;5054896;28;20213;-62
2022/01/26 06:49:44;;;;;;;41.23;21.10;;;4.20;99.90;;;;;;5055032;28;20224;-62
2022/01/26 06:52:11;;;;;;;46.43;22.77;;;4.10;99.90;;;;;;5055164;28;20213;-62
2022/01/26 06:54:38;;;;;;;41.90;22.47;;;4.20;99.90;;;;;;5054896;28;20206;-62
2022/01/26 06:57:05;;;;;;;49.63;24.57;;;4.20;99.90;;;;;;5054681;28;20254;-62
2022/01/26 06:59:33;;;;;;;42.53;21.47;;;4.20;99.90;;;;;;5054750;28;20239;-61
2022/01/26 07:02:00;;;;;;;41.77;22.80;;;4.20;99.90;;;;;;5054574;28;20209;-61
2022/01/26 07:04:26;;;;;;;47.33;23.13;;;4.20;99.90;;;;;;5054676;28;20673;-62
2022/01/26 07:06:53;;;;;;;47.93;23.43;;;4.30;99.90;;;;;;5054774;28;20266;-61
2022/01/26 07:09:20;;;;;;;39.03;21.17;;;4.30;99.90;;;;;;5054761;28;20240;-62
2022/01/26 07:11:47;;;;;;;42.47;21.60;;;4.40;99.90;;;;;;5054298;28;20625;-62
2022/01/26 07:14:23;;;;;;;36.77;21.43;;;4.40;99.90;;;;;;5054808;28;20308;-62
2022/01/26 07:19:52;;;;;;;44.20;21.50;;;4.50;99.90;;;;;;5054536;28;20244;-61
2022/01/26 07:22:19;;;;;;;47.20;27.03;;;4.40;99.90;;;;;;5054576;28;20211;-62
2022/01/26 07:24:46;;;;;;;43.57;22.10;;;4.40;99.90;;;;;;5053300;28;20212;-63
2022/01/26 07:27:12;;;;;;;43.40;22.13;;;4.40;99.90;;;;;;5054449;28;20206;-62
2022/01/26 07:29:39;;;;;;;39.63;21.47;;;4.30;99.90;;;;;;5054351;28;20228;-61
2022/01/26 07:32:08;;;;;;;42.37;22.27;;;4.20;99.90;;;;;;5054458;28;20202;-62
2022/01/26 07:34:36;;;;;;;39.60;21.03;;;4.20;99.90;;;;;;5054308;28;20232;-62
2022/01/26 07:37:06;;;;;;;43.70;21.60;;;4.20;99.90;;;;;;5053887;28;20731;-62
2022/01/26 07:39:42;;;;;;;42.60;22.80;;;4.20;99.90;;;;;;5053961;28;20698;-62
2022/01/26 07:42:10;;;;;;;39.20;20.77;;;4.20;99.90;;;;;;5054417;28;20201;-62
2022/01/26 07:44:37;;;;;;;40.17;21.93;;;4.10;99.90;;;;;;5054058;28;20292;-62
2022/01/26 07:47:04;;;;;;;43.47;22.30;;;4.10;99.90;;;;;;5053874;28;20725;-61
2022/01/26 07:49:32;;;;;;;43.33;22.13;;;4.00;99.90;;;;;;5053954;28;20229;-62
2022/01/26 07:51:59;;;;;;;42.73;22.07;;;3.90;99.90;;;;;;5053870;28;20206;-61
2022/01/26 07:54:25;;;;;;;38.90;21.60;;;3.90;99.90;;;;;;5053816;28;20235;-61
2022/01/26 07:56:52;;;;;;;46.10;23.47;;;4.00;99.90;;;;;;5053456;28;20213;-62
2022/01/26 07:59:19;;;;;;;43.40;22.00;;;4.10;99.90;;;;;;5053782;28;20598;-62
2022/01/26 08:01:46;;;;;;;43.87;22.67;;;4.20;99.90;;;;;;5053859;28;20303;-62
2022/01/26 08:04:12;;;;;;;42.30;22.43;;;4.30;99.90;;;;;;5053606;28;20446;-62
2022/01/26 08:06:40;;;;;;;41.60;21.47;;;4.30;99.90;;;;;;5053691;28;20210;-62
2022/01/26 08:09:07;;;;;;;43.57;22.37;;;4.30;99.90;;;;;;5053589;28;20316;-62
2022/01/26 08:11:34;;;;;;;43.93;22.67;;;4.30;99.90;;;;;;5053762;28;20640;-62
2022/01/26 08:14:00;;;;;;;39.97;21.20;;;4.40;99.90;;;;;;5053594;28;20278;-62
2022/01/26 08:16:27;;;;;;;44.17;23.30;;;4.40;99.90;;;;;;5053076;28;20669;-62
2022/01/26 08:18:54;;;;;;;40.40;22.47;;;4.30;99.90;;;;;;5053164;28;20628;-61
2022/01/26 08:21:20;;;;;;;42.83;22.50;;;4.40;99.90;;;;;;5053569;28;20202;-60
2022/01/26 08:23:48;;;;;;;45.40;22.17;;;4.40;99.90;;;;;;5053527;28;20202;-60
2022/01/26 08:26:21;;;;;;;42.37;21.60;;;4.20;99.90;;;;;;5053060;28;20301;-60
2022/01/26 08:28:53;;;;;;;43.63;21.57;;;4.00;99.90;;;;;;5053183;28;20312;-60
2022/01/26 08:31:19;;;;;;;44.57;21.80;;;3.90;99.90;;;;;;5053189;28;20228;-61
2022/01/26 08:33:46;;;;;;;43.80;20.60;;;3.90;99.90;;;;;;5053275;28;20237;-60
2022/01/26 08:36:13;;;;;;;42.87;21.27;;;3.90;99.90;;;;;;5052843;28;20210;-60
2022/01/26 08:38:39;;;;;;;42.80;21.90;;;3.80;99.90;;;;;;5053059;28;20225;-60
2022/01/26 08:41:09;;;;;;;45.70;23.37;;;3.70;99.90;;;;;;5053085;28;20213;-60
2022/01/26 08:43:36;;;;;;;40.90;21.97;;;3.80;99.90;;;;;;5052878;28;20205;-61
2022/01/26 08:46:03;;;;;;;39.27;22.37;;;3.70;99.90;;;;;;5052385;28;20712;-61
2022/01/26 08:48:30;;;;;;;42.73;23.27;;;3.70;99.90;;;;;;5053284;28;20263;-61
2022/01/26 08:50:57;;;;;;;42.57;21.50;;;3.70;99.90;;;;;;5053567;28;20197;-61
2022/01/26 08:53:24;;;;;;;40.83;22.00;;;3.80;99.90;;;;;;5052733;28;20210;-61
2022/01/26 08:55:51;;;;;;;42.17;20.90;;;3.80;99.90;;;;;;5052659;28;20251;-61
2022/01/26 08:58:19;;;;;;;35.87;20.67;;;3.90;99.90;;;;;;5052541;28;20221;-58
2022/01/26 09:00:46;;;;;;;38.53;20.47;;;4.00;99.90;;;;;;5053834;28;20225;-60
2022/01/26 09:03:13;;;;;;;39.63;19.97;;;4.10;99.90;;;;;;5053802;28;20251;-62
2022/01/26 09:05:39;;;;;;;41.23;21.10;;;4.00;99.90;;;;;;5053095;28;20583;-61
2022/01/26 09:08:06;;;;;;;40.07;21.23;;;3.70;99.90;;;;;;5053065;28;20287;-62
2022/01/26 09:10:34;;;;;;;34.23;19.87;;;3.80;99.90;;;;;;5053388;28;20212;-62
2022/01/26 09:13:01;;;;;;;42.27;23.50;;;4.00;99.90;;;;;;5052776;28;20231;-62
2022/01/26 09:15:31;;;;;;;35.03;20.30;;;4.30;99.90;;;;;;5052688;28;20205;-62
2022/01/26 09:18:02;;;;;;;31.83;17.83;;;4.50;99.90;;;;;;5053005;28;20275;-62
2022/01/26 09:20:28;;;;;;;34.63;19.17;;;4.70;99.90;;;;;;5053595;28;20705;-62
2022/01/26 09:22:55;;;;;;;33.20;19.60;;;4.80;99.90;;;;;;5053150;28;20556;-62
2022/01/26 09:25:22;;;;;;;29.93;17.70;;;4.90;99.90;;;;;;5052220;28;20267;-62
2022/01/26 09:27:49;;;;;;;30.97;17.87;;;4.90;99.90;;;;;;5052555;28;20205;-63
2022/01/26 09:30:15;;;;;;;30.87;18.23;;;4.80;99.90;;;;;;5052309;28;20205;-59
2022/01/26 09:32:44;;;;;;;30.23;17.33;;;4.80;99.90;;;;;;5052223;28;20244;-64
2022/01/26 09:35:13;;;;;;;30.70;18.17;;;4.90;99.90;;;;;;5052355;28;20201;-64
2022/01/26 09:37:41;;;;;;;28.57;17.10;;;4.80;99.90;;;;;;5051805;28;20201;-66
2022/01/26 09:40:08;;;;;;;33.20;17.90;;;4.80;99.90;;;;;;5051369;28;20221;-57
2022/01/26 09:42:36;;;;;;;28.07;16.70;;;4.80;99.90;;;;;;5051926;28;20205;-58
2022/01/26 09:45:05;;;;;;;29.50;16.20;;;4.70;99.90;;;;;;5052065;28;20212;-58
2022/01/26 09:47:32;;;;;;;29.57;17.70;;;4.50;99.90;;;;;;5051473;28;20213;-57
2022/01/26 09:50:02;;;;;;;29.10;17.97;;;4.60;99.90;;;;;;5051720;28;20228;-57
2022/01/26 09:52:34;;;;;;;30.33;17.57;;;4.70;99.90;;;;;;5051807;28;20639;-57
2022/01/26 09:55:01;;;;;;;29.27;16.50;;;4.90;99.90;;;;;;5051763;28;20237;-57
2022/01/26 09:57:29;;;;;;;30.37;17.27;;;5.10;99.90;;;;;;5052111;28;20212;-58
2022/01/26 09:59:56;;;;;;;25.73;16.50;;;5.30;99.90;;;;;;5051370;28;20642;-58
2022/01/26 10:02:24;;;;;;;33.80;17.03;;;5.30;99.90;;;;;;5051901;28;20329;-57
2022/01/26 10:04:58;;;;;;;27.40;16.67;;;5.20;99.90;;;;;;5051647;28;20674;-57
2022/01/26 10:07:30;;;;;;;27.77;17.33;;;5.20;99.90;;;;;;5051433;28;20201;-57
2022/01/26 10:10:06;;;;;;;32.03;18.90;;;5.10;99.90;;;;;;5051471;28;20717;-57
2022/01/26 10:15:33;;;;;;;31.30;18.03;;;5.10;99.90;;;;;;5051485;28;20200;-57
2022/01/26 10:18:03;;;;;;;32.23;16.80;;;5.10;99.90;;;;;;5051782;28;20221;-57
2022/01/26 10:20:43;;;;;;;30.37;17.60;;;5.20;99.90;;;;;;5052036;28;20279;-57
2022/01/26 10:23:16;;;;;;;29.40;17.80;;;5.20;99.90;;;;;;5051598;28;20644;-57
2022/01/26 10:25:43;;;;;;;30.77;18.43;;;5.20;99.90;;;;;;5051205;28;20675;-56
2022/01/26 10:28:11;;;;;;;29.17;16.73;;;5.20;99.90;;;;;;5051021;28;20672;-57
2022/01/26 10:30:44;;;;;;;29.87;17.17;;;5.00;99.90;;;;;;5051465;28;20209;-59
2022/01/26 10:33:11;;;;;;;26.43;15.93;;;4.90;99.90;;;;;;5052367;28;20205;-56
2022/01/26 10:35:38;;;;;;;26.00;15.43;;;4.80;99.90;;;;;;5052486;28;20263;-57
2022/01/26 10:38:07;;;;;;;24.67;15.27;;;4.90;99.90;;;;;;5052747;28;20264;-56
2022/01/26 10:40:38;;;;;;;27.27;15.77;;;5.00;99.90;;;;;;5051918;28;20312;-56
2022/01/26 10:43:09;;;;;;;25.90;16.20;;;4.90;99.90;;;;;;5051600;28;20300;-56
2022/01/26 10:45:46;;;;;;;24.87;16.47;;;4.90;99.90;;;;;;5051007;28;20206;-56
2022/01/26 10:48:25;;;;;;;30.13;17.37;;;4.80;99.90;;;;;;5051512;28;20225;-56
2022/01/26 10:54:10;;;;;;;29.13;17.17;;;4.20;99.90;;;;;;5051229;28;20286;-58
2022/01/26 10:56:39;;;;;;;27.33;17.07;;;4.10;99.90;;;;;;5051015;28;20216;-59
2022/01/26 10:59:06;;;;;;;24.80;15.67;;;4.10;99.90;;;;;;5051503;28;20229;-60
2022/01/26 11:01:36;;;;;;;25.47;15.67;;;4.10;99.90;;;;;;5054837;28;20663;-58
2022/01/26 11:04:03;;;;;;;25.97;15.87;;;4.10;99.90;;;;;;5054825;28;20685;-63
2022/01/26 11:06:30;;;;;;;26.53;16.17;;;4.00;99.90;;;;;;5054746;28;20201;-61
2022/01/26 11:09:00;;;;;;;31.50;17.43;;;3.90;99.90;;;;;;5074444;22;20892;-62
2022/01/26 11:11:27;;;;;;;32.83;19.03;;;4.00;99.90;;;;;;5054817;28;20201;-57
2022/01/26 11:13:55;;;;;;;31.53;17.13;;;4.10;99.90;;;;;;5054016;28;20213;-58
2022/01/26 11:16:22;;;;;;;33.30;17.77;;;3.90;99.90;;;;;;5053634;28;20665;-57
2022/01/26 11:18:52;;;;;;;32.60;18.53;;;3.80;99.90;;;;;;5054205;28;20237;-57
2022/01/26 11:21:30;;;;;;;31.83;17.00;;;3.80;99.90;;;;;;5054056;28;20232;-57
2022/01/26 11:24:11;;;;;;;25.97;15.77;;;3.60;99.90;;;;;;5054401;28;20201;-57
2022/01/26 11:26:41;;;;;;;29.53;16.77;;;3.50;99.90;;;;;;5054011;28;20213;-57
2022/01/26 11:29:26;;;;;;;27.57;16.47;;;3.60;99.90;;;;;;5054333;28;20228;-57
2022/01/26 11:32:07;;;;;;;28.17;16.87;;;3.70;99.90;;;;;;5054297;28;20206;-58
2022/01/26 11:34:34;;;;;;;27.37;17.20;;;3.80;99.90;;;;;;5054012;28;20392;-60
2022/01/26 11:37:02;;;;;;;29.40;16.73;;;3.90;99.90;;;;;;5053943;28;20213;-59
2022/01/26 11:45:03;;;;;;;28.73;16.27;;;4.10;99.90;;;;;;5054167;28;20315;-57
2022/01/26 11:45:31;;;;;;;24.70;14.67;;;4.10;99.90;;;;;;5053744;28;20211;-56
2022/01/26 11:48:01;;;;;;;31.47;16.97;;;4.00;99.90;;;;;;5053746;28;20665;-57
2022/01/26 11:50:30;;;;;;;29.00;16.33;;;4.00;99.90;;;;;;5053706;28;20214;-57
2022/01/26 11:53:02;;;;;;;23.97;14.63;;;4.10;99.90;;;;;;5053739;28;20686;-56
2022/01/26 11:55:33;;;;;;;26.93;15.83;;;4.00;99.90;;;;;;5053175;28;20202;-60
2022/01/26 11:58:28;;;;;;;27.30;16.27;;;4.00;99.90;;;;;;5053572;28;20221;-59
2022/01/26 12:01:12;;;;;;;29.13;16.43;;;4.00;99.90;;;;;;5051132;28;20226;-57
2022/01/26 12:03:46;;;;;;;26.17;16.10;;;4.10;99.90;;;;;;5053346;28;20772;-58
2022/01/26 12:06:19;;;;;;;27.37;15.43;;;4.10;99.90;;;;;;5052643;28;20699;-58
2022/01/26 12:08:46;;;;;;;24.63;15.33;;;4.10;99.90;;;;;;5053056;28;20272;-57
2022/01/26 12:11:14;;;;;;;27.20;15.07;;;4.20;99.90;;;;;;5052770;28;20201;-58
2022/01/26 12:13:41;;;;;;;24.20;14.47;;;4.30;99.90;;;;;;5052901;28;20212;-58
2022/01/26 12:16:13;;;;;;;26.43;15.20;;;4.40;99.90;;;;;;5052760;28;20217;-59
2022/01/26 12:18:52;;;;;;;23.77;14.37;;;4.30;99.90;;;;;;5052699;28;20229;-61
2022/01/26 12:35:22;;;;;;;27.80;15.40;;;4.00;99.90;;;;;;5052672;28;20207;-56
2022/01/26 12:37:55;;;;;;;23.10;13.60;;;3.80;99.90;;;;;;5052973;28;20205;-57
2022/01/26 12:43:12;;;;;;;27.23;14.70;;;4.10;99.90;;;;;;5052704;28;20200;-57
2022/01/26 12:45:39;;;;;;;26.20;14.87;;;4.40;99.90;;;;;;5051969;28;20627;-57
2022/01/26 12:48:10;;;;;;;25.77;14.23;;;4.30;99.90;;;;;;5052850;28;20216;-57
2022/01/26 12:50:39;;;;;;;25.37;14.87;;;4.40;99.90;;;;;;5052696;28;20198;-57
2022/01/26 12:53:07;;;;;;;25.03;15.07;;;4.20;99.90;;;;;;5052894;28;20209;-60
2022/01/26 12:55:36;;;;;;;23.50;14.23;;;3.90;99.90;;;;;;5052169;28;20693;-61
2022/01/26 12:58:04;;;;;;;28.87;15.60;;;3.90;99.90;;;;;;5052637;28;20216;-60
2022/01/26 13:00:40;;;;;;;28.03;16.03;;;4.00;99.90;;;;;;5052601;28;20243;-61
2022/01/26 13:03:13;;;;;;;27.93;15.37;;;4.20;99.90;;;;;;5052637;28;20668;-61
2022/01/26 13:05:40;;;;;;;28.00;16.63;;;4.10;99.90;;;;;;5052328;28;20718;-62
2022/01/26 13:08:08;;;;;;;26.70;16.17;;;3.70;99.90;;;;;;5052715;28;20583;-59
2022/01/26 13:10:35;;;;;;;29.27;16.90;;;3.60;99.90;;;;;;5052350;28;20213;-59
2022/01/26 13:13:13;;;;;;;28.37;16.23;;;3.60;99.90;;;;;;5052668;28;20633;-61
2022/01/26 13:15:55;;;;;;;27.33;14.87;;;3.70;99.90;;;;;;5052463;28;20292;-60
2022/01/26 13:18:44;;;;;;;27.23;16.27;;;3.80;99.90;;;;;;5052467;28;20770;-56
2022/01/26 13:21:52;;;;;;;29.23;16.47;;;3.90;99.90;;;;;;5052062;28;20594;-57
2022/01/26 13:24:33;;;;;;;28.87;15.83;;;3.80;99.90;;;;;;5052538;28;20209;-56
2022/01/26 13:27:09;;;;;;;27.97;16.17;;;3.70;99.90;;;;;;5052127;28;20582;-56
2022/01/26 13:29:50;;;;;;;29.67;15.57;;;3.70;99.90;;;;;;5052630;28;20703;-56
2022/01/26 13:35:32;;;;;;;27.23;16.00;;;3.80;99.90;;;;;;5026359;28;20715;-57
2022/01/26 13:40:58;;;;;;;28.30;15.33;;;3.90;99.90;;;;;;5036239;28;20224;-57
2022/01/26 13:49:12;;;;;;;25.93;15.20;;;3.80;99.90;;;;;;5021112;28;20232;-64
2022/01/26 13:51:48;;;;;;;27.27;15.90;;;3.80;99.90;;;;;;5052116;28;20201;-57
2022/01/26 13:54:52;;;;;;;28.00;14.93;;;3.80;99.90;;;;;;5052076;28;20263;-57
2022/01/26 13:57:45;;;;;;;24.87;14.63;;;3.80;99.90;;;;;;5051672;28;20237;-58
2022/01/26 14:00:15;;;;;;;22.03;12.67;;;3.90;99.90;;;;;;5051599;28;20233;-57
2022/01/26 14:02:42;;;;;;;24.10;12.53;;;3.90;99.90;;;;;;5051350;28;20213;-58
2022/01/26 14:05:10;;;;;;;21.57;13.03;;;3.90;99.90;;;;;;5052127;28;20221;-62
2022/01/26 14:07:38;;;;;;;24.93;13.23;;;3.80;99.90;;;;;;5051748;28;20580;-59
2022/01/26 14:10:05;;;;;;;20.27;12.50;;;3.60;99.90;;;;;;5051363;28;20287;-62
2022/01/26 14:12:38;;;;;;;23.23;13.20;;;3.50;99.90;;;;;;5051743;28;20213;-59
2022/01/26 14:15:07;;;;;;;19.20;11.30;;;3.40;99.90;;;;;;5051698;28;20210;-59
2022/01/26 14:17:42;;;;;;;18.83;11.67;;;3.40;99.90;;;;;;5051794;28;20216;-58
2022/01/26 14:20:17;;;;;;;17.73;11.47;;;3.30;99.90;;;;;;5052002;28;20316;-59
2022/01/26 14:25:30;;;;;;;17.60;11.17;;;3.20;99.90;;;;;;5051452;28;20259;-60
2022/01/26 14:28:02;;;;;;;15.43;9.87;;;3.30;99.90;;;;;;5040117;28;20307;-57